Terminal Aerodrome Forecast
Issued by NWS Jackson, MS

Home | Current Version | Previous Version | Text Only | Print | Product List | Glossary On
Versions: 1 2 3 4 5 6 7 8 9 10 11 12 13 14 15 16 17
000
FTUS44 KMEG 281746
TAFTUP
TAF
KTUP 281746Z 2818/2918 04009KT P6SM VCSH BKN010 OVC020
     FM282000 03007KT P6SM -RA OVC009
     FM290100 03008KT 6SM BR OVC009
     FM291600 05004KT P6SM OVC015=

USA.gov is the U.S. government's official web portal to all federal, state and local government web resources and services.